sensor_id;sensor_type;location;lat;lon;timestamp;P1;durP1;ratioP1;P2;durP2;ratioP2
41077;SDS011;26823;42.662;23.352;2023-10-13T00:01:24;15.88;;;11.52;;
41077;SDS011;26823;42.662;23.352;2023-10-13T00:03:49;16.25;;;10.68;;
41077;SDS011;26823;42.662;23.352;2023-10-13T00:06:17;16.58;;;11.73;;
41077;SDS011;26823;42.662;23.352;2023-10-13T00:08:43;14.55;;;9.73;;
41077;SDS011;26823;42.662;23.352;2023-10-13T00:11:12;12.35;;;9.32;;
41077;SDS011;26823;42.662;23.352;2023-10-13T00:13:39;16.83;;;9.80;;
41077;SDS011;26823;42.662;23.352;2023-10-13T00:16:08;11.88;;;9.68;;
41077;SDS011;26823;42.662;23.352;2023-10-13T00:18:35;19.15;;;10.68;;
41077;SDS011;26823;42.662;23.352;2023-10-13T00:21:07;16.80;;;9.73;;
41077;SDS011;26823;42.662;23.352;2023-10-13T00:23:52;12.80;;;9.50;;
41077;SDS011;26823;42.662;23.352;2023-10-13T00:26:25;17.73;;;10.32;;
41077;SDS011;26823;42.662;23.352;2023-10-13T00:28:56;12.07;;;10.20;;
41077;SDS011;26823;42.662;23.352;2023-10-13T00:31:37;20.50;;;9.45;;
41077;SDS011;26823;42.662;23.352;2023-10-13T00:34:05;19.98;;;10.40;;
41077;SDS011;26823;42.662;23.352;2023-10-13T00:36:41;14.82;;;9.48;;
41077;SDS011;26823;42.662;23.352;2023-10-13T00:39:13;13.10;;;9.70;;
41077;SDS011;26823;42.662;23.352;2023-10-13T00:41:41;19.88;;;10.25;;
41077;SDS011;26823;42.662;23.352;2023-10-13T00:44:18;11.43;;;9.18;;
41077;SDS011;26823;42.662;23.352;2023-10-13T00:46:51;14.75;;;9.32;;
41077;SDS011;26823;42.662;23.352;2023-10-13T00:49:21;18.10;;;10.10;;
41077;SDS011;26823;42.662;23.352;2023-10-13T00:51:47;16.73;;;9.45;;
41077;SDS011;26823;42.662;23.352;2023-10-13T00:54:14;20.00;;;9.82;;
41077;SDS011;26823;42.662;23.352;2023-10-13T00:56:45;14.48;;;9.88;;
41077;SDS011;26823;42.662;23.352;2023-10-13T00:59:22;15.18;;;9.80;;
41077;SDS011;26823;42.662;23.352;2023-10-13T01:01:50;13.80;;;9.18;;
41077;SDS011;26823;42.662;23.352;2023-10-13T01:04:20;14.38;;;9.70;;
41077;SDS011;26823;42.662;23.352;2023-10-13T01:06:48;13.63;;;9.23;;
41077;SDS011;26823;42.662;23.352;2023-10-13T01:09:14;14.85;;;10.10;;
41077;SDS011;26823;42.662;23.352;2023-10-13T01:11:45;13.38;;;9.18;;
41077;SDS011;26823;42.662;23.352;2023-10-13T01:14:17;16.25;;;9.23;;
41077;SDS011;26823;42.662;23.352;2023-10-13T01:16:45;19.95;;;10.15;;
41077;SDS011;26823;42.662;23.352;2023-10-13T01:19:12;17.13;;;10.38;;
41077;SDS011;26823;42.662;23.352;2023-10-13T01:21:49;19.42;;;9.30;;
41077;SDS011;26823;42.662;23.352;2023-10-13T01:24:19;18.00;;;8.95;;
41077;SDS011;26823;42.662;23.352;2023-10-13T01:26:48;15.30;;;9.05;;
41077;SDS011;26823;42.662;23.352;2023-10-13T01:29:16;14.23;;;9.18;;
41077;SDS011;26823;42.662;23.352;2023-10-13T01:31:44;17.25;;;8.48;;
41077;SDS011;26823;42.662;23.352;2023-10-13T01:34:13;14.93;;;9.23;;
41077;SDS011;26823;42.662;23.352;2023-10-13T01:36:44;23.33;;;9.18;;
41077;SDS011;26823;42.662;23.352;2023-10-13T01:39:10;14.98;;;8.88;;
41077;SDS011;26823;42.662;23.352;2023-10-13T01:41:36;13.98;;;8.95;;
41077;SDS011;26823;42.662;23.352;2023-10-13T01:44:04;14.80;;;9.02;;
41077;SDS011;26823;42.662;23.352;2023-10-13T01:46:29;11.57;;;8.25;;
41077;SDS011;26823;42.662;23.352;2023-10-13T01:48:55;14.45;;;8.63;;
41077;SDS011;26823;42.662;23.352;2023-10-13T01:51:22;12.77;;;8.55;;
41077;SDS011;26823;42.662;23.352;2023-10-13T01:53:48;15.93;;;8.88;;
41077;SDS011;26823;42.662;23.352;2023-10-13T01:56:21;10.10;;;8.13;;
41077;SDS011;26823;42.662;23.352;2023-10-13T01:58:48;12.00;;;8.15;;
41077;SDS011;26823;42.662;23.352;2023-10-13T02:01:13;11.70;;;8.18;;
41077;SDS011;26823;42.662;23.352;2023-10-13T02:03:39;18.17;;;8.85;;
41077;SDS011;26823;42.662;23.352;2023-10-13T02:06:14;14.43;;;8.60;;
41077;SDS011;26823;42.662;23.352;2023-10-13T02:08:49;14.65;;;8.93;;
41077;SDS011;26823;42.662;23.352;2023-10-13T02:11:17;13.98;;;8.10;;
41077;SDS011;26823;42.662;23.352;2023-10-13T02:13:43;13.43;;;7.78;;
41077;SDS011;26823;42.662;23.352;2023-10-13T02:16:13;12.65;;;9.27;;
41077;SDS011;26823;42.662;23.352;2023-10-13T02:18:43;11.85;;;8.85;;
41077;SDS011;26823;42.662;23.352;2023-10-13T02:21:09;14.38;;;8.27;;
41077;SDS011;26823;42.662;23.352;2023-10-13T02:23:40;12.93;;;8.00;;
41077;SDS011;26823;42.662;23.352;2023-10-13T02:26:09;13.30;;;8.18;;
41077;SDS011;26823;42.662;23.352;2023-10-13T02:28:46;12.15;;;8.32;;
41077;SDS011;26823;42.662;23.352;2023-10-13T02:31:16;13.70;;;7.72;;
41077;SDS011;26823;42.662;23.352;2023-10-13T02:33:44;13.50;;;8.32;;
41077;SDS011;26823;42.662;23.352;2023-10-13T02:36:10;19.58;;;8.05;;
41077;SDS011;26823;42.662;23.352;2023-10-13T02:38:37;12.43;;;8.43;;
41077;SDS011;26823;42.662;23.352;2023-10-13T02:41:12;11.77;;;7.53;;
41077;SDS011;26823;42.662;23.352;2023-10-13T02:43:50;12.77;;;8.75;;
41077;SDS011;26823;42.662;23.352;2023-10-13T02:46:18;11.80;;;8.48;;
41077;SDS011;26823;42.662;23.352;2023-10-13T02:48:47;14.75;;;8.60;;
41077;SDS011;26823;42.662;23.352;2023-10-13T02:51:21;16.65;;;9.40;;
41077;SDS011;26823;42.662;23.352;2023-10-13T02:54:07;12.35;;;8.80;;
41077;SDS011;26823;42.662;23.352;2023-10-13T02:56:36;16.42;;;9.35;;
41077;SDS011;26823;42.662;23.352;2023-10-13T02:59:24;14.32;;;9.02;;
41077;SDS011;26823;42.662;23.352;2023-10-13T03:02:02;13.07;;;8.48;;
41077;SDS011;26823;42.662;23.352;2023-10-13T03:04:55;15.25;;;8.23;;
41077;SDS011;26823;42.662;23.352;2023-10-13T03:07:24;12.63;;;8.30;;
41077;SDS011;26823;42.662;23.352;2023-10-13T03:09:54;14.77;;;9.07;;
41077;SDS011;26823;42.662;23.352;2023-10-13T03:12:24;11.50;;;8.65;;
41077;SDS011;26823;42.662;23.352;2023-10-13T03:14:50;13.77;;;9.13;;
41077;SDS011;26823;42.662;23.352;2023-10-13T03:17:34;15.27;;;9.30;;
41077;SDS011;26823;42.662;23.352;2023-10-13T03:20:00;15.93;;;8.90;;
41077;SDS011;26823;42.662;23.352;2023-10-13T03:22:25;14.32;;;8.80;;
41077;SDS011;26823;42.662;23.352;2023-10-13T03:25:00;14.10;;;9.07;;
41077;SDS011;26823;42.662;23.352;2023-10-13T03:27:30;15.60;;;8.40;;
41077;SDS011;26823;42.662;23.352;2023-10-13T03:30:26;15.32;;;8.98;;
41077;SDS011;26823;42.662;23.352;2023-10-13T03:33:03;14.95;;;9.32;;
41077;SDS011;26823;42.662;23.352;2023-10-13T03:35:36;13.93;;;9.43;;
41077;SDS011;26823;42.662;23.352;2023-10-13T03:38:03;15.50;;;8.70;;
41077;SDS011;26823;42.662;23.352;2023-10-13T03:40:29;12.93;;;8.32;;
41077;SDS011;26823;42.662;23.352;2023-10-13T03:42:56;14.70;;;9.05;;
41077;SDS011;26823;42.662;23.352;2023-10-13T03:45:38;13.27;;;8.68;;
41077;SDS011;26823;42.662;23.352;2023-10-13T03:48:07;15.10;;;9.65;;
41077;SDS011;26823;42.662;23.352;2023-10-13T03:50:55;17.23;;;8.98;;
41077;SDS011;26823;42.662;23.352;2023-10-13T03:53:32;17.10;;;9.07;;
41077;SDS011;26823;42.662;23.352;2023-10-13T03:56:01;16.05;;;9.30;;
41077;SDS011;26823;42.662;23.352;2023-10-13T03:58:34;21.58;;;9.35;;
41077;SDS011;26823;42.662;23.352;2023-10-13T04:01:01;16.33;;;8.65;;
41077;SDS011;26823;42.662;23.352;2023-10-13T04:03:28;15.68;;;9.40;;
41077;SDS011;26823;42.662;23.352;2023-10-13T04:05:58;15.60;;;8.93;;
41077;SDS011;26823;42.662;23.352;2023-10-13T04:08:31;14.75;;;8.82;;
41077;SDS011;26823;42.662;23.352;2023-10-13T04:11:35;15.90;;;9.50;;
41077;SDS011;26823;42.662;23.352;2023-10-13T04:14:26;16.25;;;9.38;;
41077;SDS011;26823;42.662;23.352;2023-10-13T04:17:10;18.20;;;10.03;;
41077;SDS011;26823;42.662;23.352;2023-10-13T04:19:39;14.57;;;10.00;;
41077;SDS011;26823;42.662;23.352;2023-10-13T04:22:25;14.82;;;9.75;;
41077;SDS011;26823;42.662;23.352;2023-10-13T04:27:58;14.73;;;9.82;;
41077;SDS011;26823;42.662;23.352;2023-10-13T04:30:48;17.02;;;9.13;;
41077;SDS011;26823;42.662;23.352;2023-10-13T04:33:24;16.17;;;9.37;;
41077;SDS011;26823;42.662;23.352;2023-10-13T04:36:06;14.00;;;9.63;;
41077;SDS011;26823;42.662;23.352;2023-10-13T04:38:47;17.27;;;9.57;;
41077;SDS011;26823;42.662;23.352;2023-10-13T04:41:30;14.93;;;9.93;;
41077;SDS011;26823;42.662;23.352;2023-10-13T04:44:01;19.00;;;9.55;;
41077;SDS011;26823;42.662;23.352;2023-10-13T04:46:30;16.52;;;9.35;;
41077;SDS011;26823;42.662;23.352;2023-10-13T04:49:22;18.90;;;9.80;;
41077;SDS011;26823;42.662;23.352;2023-10-13T04:51:54;14.25;;;9.32;;
41077;SDS011;26823;42.662;23.352;2023-10-13T04:54:24;16.70;;;9.82;;
41077;SDS011;26823;42.662;23.352;2023-10-13T04:56:51;14.57;;;10.10;;
41077;SDS011;26823;42.662;23.352;2023-10-13T04:59:35;14.98;;;10.02;;
41077;SDS011;26823;42.662;23.352;2023-10-13T05:02:02;17.77;;;9.45;;
41077;SDS011;26823;42.662;23.352;2023-10-13T05:04:46;21.40;;;10.23;;
41077;SDS011;26823;42.662;23.352;2023-10-13T05:07:30;16.38;;;10.50;;
41077;SDS011;26823;42.662;23.352;2023-10-13T05:10:18;15.70;;;10.07;;
41077;SDS011;26823;42.662;23.352;2023-10-13T05:13:02;19.45;;;10.52;;
41077;SDS011;26823;42.662;23.352;2023-10-13T05:15:50;21.73;;;10.07;;
41077;SDS011;26823;42.662;23.352;2023-10-13T05:18:35;21.67;;;11.15;;
41077;SDS011;26823;42.662;23.352;2023-10-13T05:21:19;16.88;;;10.75;;
41077;SDS011;26823;42.662;23.352;2023-10-13T05:24:04;18.83;;;10.73;;
41077;SDS011;26823;42.662;23.352;2023-10-13T05:26:48;18.83;;;10.93;;
41077;SDS011;26823;42.662;23.352;2023-10-13T05:29:33;20.70;;;11.10;;
41077;SDS011;26823;42.662;23.352;2023-10-13T05:32:17;16.17;;;10.23;;
41077;SDS011;26823;42.662;23.352;2023-10-13T05:35:06;16.20;;;11.00;;
41077;SDS011;26823;42.662;23.352;2023-10-13T05:37:50;16.80;;;11.33;;
41077;SDS011;26823;42.662;23.352;2023-10-13T05:40:33;21.67;;;11.32;;
41077;SDS011;26823;42.662;23.352;2023-10-13T05:43:17;19.90;;;11.93;;
41077;SDS011;26823;42.662;23.352;2023-10-13T05:46:02;20.15;;;10.70;;
41077;SDS011;26823;42.662;23.352;2023-10-13T05:48:47;20.20;;;11.45;;
41077;SDS011;26823;42.662;23.352;2023-10-13T05:51:27;22.50;;;12.25;;
41077;SDS011;26823;42.662;23.352;2023-10-13T05:53:58;17.77;;;11.48;;
41077;SDS011;26823;42.662;23.352;2023-10-13T05:56:48;16.83;;;11.32;;
41077;SDS011;26823;42.662;23.352;2023-10-13T05:59:34;21.45;;;12.18;;
41077;SDS011;26823;42.662;23.352;2023-10-13T06:02:20;22.17;;;12.82;;
41077;SDS011;26823;42.662;23.352;2023-10-13T06:05:05;25.25;;;12.43;;
41077;SDS011;26823;42.662;23.352;2023-10-13T06:07:51;18.20;;;11.77;;
41077;SDS011;26823;42.662;23.352;2023-10-13T06:10:35;21.52;;;12.57;;
41077;SDS011;26823;42.662;23.352;2023-10-13T06:13:21;15.52;;;11.27;;
41077;SDS011;26823;42.662;23.352;2023-10-13T06:16:07;17.63;;;11.88;;
41077;SDS011;26823;42.662;23.352;2023-10-13T06:18:51;21.55;;;13.50;;
41077;SDS011;26823;42.662;23.352;2023-10-13T06:21:35;22.67;;;12.73;;
41077;SDS011;26823;42.662;23.352;2023-10-13T06:24:19;24.25;;;13.07;;
41077;SDS011;26823;42.662;23.352;2023-10-13T06:27:03;25.65;;;12.90;;
41077;SDS011;26823;42.662;23.352;2023-10-13T06:29:47;21.10;;;12.85;;
41077;SDS011;26823;42.662;23.352;2023-10-13T06:32:13;23.48;;;12.73;;
41077;SDS011;26823;42.662;23.352;2023-10-13T06:34:41;22.33;;;13.07;;
41077;SDS011;26823;42.662;23.352;2023-10-13T06:37:19;24.83;;;15.10;;
41077;SDS011;26823;42.662;23.352;2023-10-13T06:39:50;24.52;;;14.30;;
41077;SDS011;26823;42.662;23.352;2023-10-13T06:42:17;20.10;;;13.85;;
41077;SDS011;26823;42.662;23.352;2023-10-13T06:44:45;20.88;;;12.20;;
41077;SDS011;26823;42.662;23.352;2023-10-13T06:47:12;23.48;;;13.50;;
41077;SDS011;26823;42.662;23.352;2023-10-13T06:49:39;25.73;;;13.88;;
41077;SDS011;26823;42.662;23.352;2023-10-13T06:52:05;26.65;;;12.93;;
41077;SDS011;26823;42.662;23.352;2023-10-13T06:54:35;20.55;;;13.18;;
41077;SDS011;26823;42.662;23.352;2023-10-13T06:57:02;20.63;;;12.93;;
41077;SDS011;26823;42.662;23.352;2023-10-13T06:59:31;19.65;;;12.45;;
41077;SDS011;26823;42.662;23.352;2023-10-13T07:01:59;20.25;;;13.25;;
41077;SDS011;26823;42.662;23.352;2023-10-13T07:04:31;20.88;;;13.00;;
41077;SDS011;26823;42.662;23.352;2023-10-13T07:06:57;24.92;;;13.43;;
41077;SDS011;26823;42.662;23.352;2023-10-13T07:09:25;22.30;;;13.60;;
41077;SDS011;26823;42.662;23.352;2023-10-13T07:14:31;22.23;;;14.10;;
41077;SDS011;26823;42.662;23.352;2023-10-13T07:17:05;28.60;;;15.10;;
41077;SDS011;26823;42.662;23.352;2023-10-13T07:19:33;26.10;;;14.50;;
41077;SDS011;26823;42.662;23.352;2023-10-13T07:22:00;19.58;;;13.40;;
41077;SDS011;26823;42.662;23.352;2023-10-13T07:24:46;21.55;;;12.63;;
41077;SDS011;26823;42.662;23.352;2023-10-13T07:27:16;24.95;;;13.90;;
41077;SDS011;26823;42.662;23.352;2023-10-13T07:29:48;20.75;;;14.02;;
41077;SDS011;26823;42.662;23.352;2023-10-13T07:32:36;22.75;;;12.65;;
41077;SDS011;26823;42.662;23.352;2023-10-13T07:35:01;24.25;;;14.23;;
41077;SDS011;26823;42.662;23.352;2023-10-13T07:37:32;29.00;;;14.02;;
41077;SDS011;26823;42.662;23.352;2023-10-13T07:39:58;17.80;;;13.25;;
41077;SDS011;26823;42.662;23.352;2023-10-13T07:42:26;20.98;;;13.00;;
41077;SDS011;26823;42.662;23.352;2023-10-13T07:45:04;21.08;;;12.50;;
41077;SDS011;26823;42.662;23.352;2023-10-13T07:47:31;19.10;;;12.85;;
41077;SDS011;26823;42.662;23.352;2023-10-13T07:49:58;25.48;;;13.68;;
41077;SDS011;26823;42.662;23.352;2023-10-13T07:52:23;20.65;;;11.23;;
41077;SDS011;26823;42.662;23.352;2023-10-13T07:54:51;23.25;;;11.77;;
41077;SDS011;26823;42.662;23.352;2023-10-13T07:57:35;24.05;;;11.35;;
41077;SDS011;26823;42.662;23.352;2023-10-13T08:00:01;26.25;;;11.25;;
41077;SDS011;26823;42.662;23.352;2023-10-13T08:03:00;16.45;;;12.07;;
41077;SDS011;26823;42.662;23.352;2023-10-13T08:05:54;20.27;;;11.98;;
41077;SDS011;26823;42.662;23.352;2023-10-13T08:08:44;24.50;;;12.68;;
41077;SDS011;26823;42.662;23.352;2023-10-13T08:11:14;17.58;;;11.57;;
41077;SDS011;26823;42.662;23.352;2023-10-13T08:16:19;17.30;;;11.45;;
41077;SDS011;26823;42.662;23.352;2023-10-13T08:18:51;21.45;;;13.20;;
41077;SDS011;26823;42.662;23.352;2023-10-13T08:21:17;25.50;;;14.13;;
41077;SDS011;26823;42.662;23.352;2023-10-13T08:23:49;19.75;;;13.45;;
41077;SDS011;26823;42.662;23.352;2023-10-13T08:26:23;21.98;;;13.40;;
41077;SDS011;26823;42.662;23.352;2023-10-13T08:29:13;24.45;;;13.73;;
41077;SDS011;26823;42.662;23.352;2023-10-13T08:31:50;26.23;;;14.00;;
41077;SDS011;26823;42.662;23.352;2023-10-13T08:34:37;26.48;;;14.68;;
41077;SDS011;26823;42.662;23.352;2023-10-13T08:37:26;24.40;;;14.35;;
41077;SDS011;26823;42.662;23.352;2023-10-13T08:39:53;23.52;;;14.70;;
41077;SDS011;26823;42.662;23.352;2023-10-13T08:45:09;25.05;;;15.15;;
41077;SDS011;26823;42.662;23.352;2023-10-13T08:47:56;26.67;;;16.65;;
41077;SDS011;26823;42.662;23.352;2023-10-13T08:53:24;25.17;;;15.57;;
41077;SDS011;26823;42.662;23.352;2023-10-13T08:55:55;23.10;;;15.88;;
41077;SDS011;26823;42.662;23.352;2023-10-13T08:58:57;25.25;;;16.17;;
41077;SDS011;26823;42.662;23.352;2023-10-13T09:01:34;21.92;;;15.10;;
41077;SDS011;26823;42.662;23.352;2023-10-13T09:04:17;24.75;;;16.88;;
41077;SDS011;26823;42.662;23.352;2023-10-13T09:09:23;24.77;;;15.27;;
41077;SDS011;26823;42.662;23.352;2023-10-13T09:11:53;28.33;;;15.55;;
41077;SDS011;26823;42.662;23.352;2023-10-13T09:14:32;23.63;;;13.50;;
41077;SDS011;26823;42.662;23.352;2023-10-13T09:17:02;21.65;;;13.70;;
41077;SDS011;26823;42.662;23.352;2023-10-13T09:19:46;22.67;;;15.05;;
41077;SDS011;26823;42.662;23.352;2023-10-13T09:22:24;23.65;;;14.38;;
41077;SDS011;26823;42.662;23.352;2023-10-13T09:25:00;25.42;;;13.82;;
41077;SDS011;26823;42.662;23.352;2023-10-13T09:27:38;24.33;;;13.45;;
41077;SDS011;26823;42.662;23.352;2023-10-13T09:30:11;22.40;;;13.32;;
41077;SDS011;26823;42.662;23.352;2023-10-13T09:33:02;20.35;;;12.48;;
41077;SDS011;26823;42.662;23.352;2023-10-13T09:35:29;20.85;;;12.63;;
41077;SDS011;26823;42.662;23.352;2023-10-13T09:37:59;22.52;;;13.43;;
41077;SDS011;26823;42.662;23.352;2023-10-13T09:40:27;17.60;;;12.02;;
41077;SDS011;26823;42.662;23.352;2023-10-13T09:43:11;26.13;;;13.07;;
41077;SDS011;26823;42.662;23.352;2023-10-13T09:45:40;24.40;;;12.05;;
41077;SDS011;26823;42.662;23.352;2023-10-13T09:48:37;27.52;;;11.88;;
41077;SDS011;26823;42.662;23.352;2023-10-13T09:51:06;20.90;;;11.23;;
41077;SDS011;26823;42.662;23.352;2023-10-13T09:53:37;19.80;;;10.57;;
41077;SDS011;26823;42.662;23.352;2023-10-13T09:56:09;14.82;;;9.60;;
41077;SDS011;26823;42.662;23.352;2023-10-13T10:01:32;15.20;;;9.65;;
41077;SDS011;26823;42.662;23.352;2023-10-13T10:04:09;22.52;;;10.23;;
41077;SDS011;26823;42.662;23.352;2023-10-13T10:06:51;17.00;;;9.02;;
41077;SDS011;26823;42.662;23.352;2023-10-13T10:09:26;14.52;;;9.05;;
41077;SDS011;26823;42.662;23.352;2023-10-13T10:12:16;19.35;;;9.25;;
41077;SDS011;26823;42.662;23.352;2023-10-13T10:15:09;14.98;;;8.88;;
41077;SDS011;26823;42.662;23.352;2023-10-13T10:17:53;15.48;;;8.70;;
41077;SDS011;26823;42.662;23.352;2023-10-13T10:20:27;16.48;;;8.90;;
41077;SDS011;26823;42.662;23.352;2023-10-13T10:23:10;14.80;;;8.30;;
41077;SDS011;26823;42.662;23.352;2023-10-13T10:25:47;15.98;;;7.80;;
41077;SDS011;26823;42.662;23.352;2023-10-13T10:28:13;11.90;;;6.40;;
41077;SDS011;26823;42.662;23.352;2023-10-13T10:30:41;11.68;;;6.78;;
41077;SDS011;26823;42.662;23.352;2023-10-13T10:33:09;16.42;;;7.85;;
41077;SDS011;26823;42.662;23.352;2023-10-13T10:35:41;15.18;;;7.18;;
41077;SDS011;26823;42.662;23.352;2023-10-13T10:38:15;9.25;;;4.60;;
41077;SDS011;26823;42.662;23.352;2023-10-13T10:40:54;7.95;;;4.80;;
41077;SDS011;26823;42.662;23.352;2023-10-13T10:43:28;8.27;;;4.85;;
41077;SDS011;26823;42.662;23.352;2023-10-13T10:46:06;12.23;;;4.63;;
41077;SDS011;26823;42.662;23.352;2023-10-13T10:48:32;11.50;;;5.30;;
41077;SDS011;26823;42.662;23.352;2023-10-13T10:50:59;9.02;;;5.68;;
41077;SDS011;26823;42.662;23.352;2023-10-13T10:53:33;11.90;;;5.22;;
41077;SDS011;26823;42.662;23.352;2023-10-13T10:56:08;12.52;;;5.47;;
41077;SDS011;26823;42.662;23.352;2023-10-13T10:58:45;10.45;;;4.85;;
41077;SDS011;26823;42.662;23.352;2023-10-13T11:01:11;9.00;;;4.90;;
41077;SDS011;26823;42.662;23.352;2023-10-13T11:03:52;8.73;;;5.22;;
41077;SDS011;26823;42.662;23.352;2023-10-13T11:06:27;12.43;;;4.75;;
41077;SDS011;26823;42.662;23.352;2023-10-13T11:09:05;10.00;;;4.38;;
41077;SDS011;26823;42.662;23.352;2023-10-13T11:11:44;9.05;;;5.30;;
41077;SDS011;26823;42.662;23.352;2023-10-13T11:14:19;10.23;;;5.00;;
41077;SDS011;26823;42.662;23.352;2023-10-13T11:16:48;8.80;;;4.18;;
41077;SDS011;26823;42.662;23.352;2023-10-13T11:19:18;10.13;;;4.60;;
41077;SDS011;26823;42.662;23.352;2023-10-13T11:21:46;10.02;;;4.38;;
41077;SDS011;26823;42.662;23.352;2023-10-13T11:24:12;12.00;;;4.07;;
41077;SDS011;26823;42.662;23.352;2023-10-13T11:26:38;8.55;;;4.13;;
41077;SDS011;26823;42.662;23.352;2023-10-13T11:29:17;8.27;;;3.70;;
41077;SDS011;26823;42.662;23.352;2023-10-13T11:31:56;7.03;;;4.53;;
41077;SDS011;26823;42.662;23.352;2023-10-13T11:34:28;8.52;;;4.80;;
41077;SDS011;26823;42.662;23.352;2023-10-13T11:37:04;8.45;;;4.65;;
41077;SDS011;26823;42.662;23.352;2023-10-13T11:39:50;6.95;;;4.78;;
41077;SDS011;26823;42.662;23.352;2023-10-13T11:42:16;7.35;;;3.50;;
41077;SDS011;26823;42.662;23.352;2023-10-13T11:44:42;8.00;;;3.50;;
41077;SDS011;26823;42.662;23.352;2023-10-13T11:47:10;7.10;;;3.95;;
41077;SDS011;26823;42.662;23.352;2023-10-13T11:50:01;5.30;;;3.75;;
41077;SDS011;26823;42.662;23.352;2023-10-13T11:52:30;5.65;;;3.45;;
41077;SDS011;26823;42.662;23.352;2023-10-13T11:54:55;6.45;;;3.13;;
41077;SDS011;26823;42.662;23.352;2023-10-13T11:57:21;5.22;;;3.88;;
41077;SDS011;26823;42.662;23.352;2023-10-13T11:59:47;10.65;;;3.63;;
41077;SDS011;26823;42.662;23.352;2023-10-13T12:02:20;12.82;;;3.30;;
41077;SDS011;26823;42.662;23.352;2023-10-13T12:04:51;8.95;;;3.60;;
41077;SDS011;26823;42.662;23.352;2023-10-13T12:07:19;7.53;;;3.20;;
41077;SDS011;26823;42.662;23.352;2023-10-13T12:09:47;4.38;;;2.55;;
41077;SDS011;26823;42.662;23.352;2023-10-13T12:12:20;10.82;;;3.22;;
41077;SDS011;26823;42.662;23.352;2023-10-13T12:14:49;5.93;;;2.95;;
41077;SDS011;26823;42.662;23.352;2023-10-13T12:17:21;6.13;;;2.83;;
41077;SDS011;26823;42.662;23.352;2023-10-13T12:19:53;4.03;;;3.00;;
41077;SDS011;26823;42.662;23.352;2023-10-13T12:22:20;8.48;;;2.70;;
41077;SDS011;26823;42.662;23.352;2023-10-13T12:24:54;6.57;;;2.70;;
41077;SDS011;26823;42.662;23.352;2023-10-13T12:27:20;17.63;;;3.17;;
41077;SDS011;26823;42.662;23.352;2023-10-13T12:29:48;6.13;;;2.78;;
41077;SDS011;26823;42.662;23.352;2023-10-13T12:32:17;5.90;;;2.67;;
41077;SDS011;26823;42.662;23.352;2023-10-13T12:34:47;7.05;;;2.53;;
41077;SDS011;26823;42.662;23.352;2023-10-13T12:37:45;6.88;;;3.42;;
41077;SDS011;26823;42.662;23.352;2023-10-13T12:40:14;9.55;;;2.83;;
41077;SDS011;26823;42.662;23.352;2023-10-13T12:42:59;8.50;;;3.05;;
41077;SDS011;26823;42.662;23.352;2023-10-13T12:45:44;10.75;;;2.92;;
41077;SDS011;26823;42.662;23.352;2023-10-13T12:48:30;6.43;;;2.67;;
41077;SDS011;26823;42.662;23.352;2023-10-13T12:51:15;6.20;;;3.28;;
41077;SDS011;26823;42.662;23.352;2023-10-13T12:54:00;7.70;;;2.72;;
41077;SDS011;26823;42.662;23.352;2023-10-13T12:57:01;6.07;;;2.90;;
41077;SDS011;26823;42.662;23.352;2023-10-13T12:59:27;8.48;;;3.00;;
41077;SDS011;26823;42.662;23.352;2023-10-13T13:01:53;8.48;;;2.55;;
41077;SDS011;26823;42.662;23.352;2023-10-13T13:04:18;3.58;;;2.50;;
41077;SDS011;26823;42.662;23.352;2023-10-13T13:06:45;9.90;;;2.60;;
41077;SDS011;26823;42.662;23.352;2023-10-13T13:09:14;3.58;;;1.92;;
41077;SDS011;26823;42.662;23.352;2023-10-13T13:11:40;6.72;;;2.80;;
41077;SDS011;26823;42.662;23.352;2023-10-13T13:14:06;4.25;;;2.35;;
41077;SDS011;26823;42.662;23.352;2023-10-13T13:16:35;4.97;;;2.50;;
41077;SDS011;26823;42.662;23.352;2023-10-13T13:19:03;4.70;;;2.70;;
41077;SDS011;26823;42.662;23.352;2023-10-13T13:21:35;12.20;;;2.90;;
41077;SDS011;26823;42.662;23.352;2023-10-13T13:24:03;6.50;;;3.17;;
41077;SDS011;26823;42.662;23.352;2023-10-13T13:26:35;5.45;;;2.33;;
41077;SDS011;26823;42.662;23.352;2023-10-13T13:29:01;6.20;;;2.63;;
41077;SDS011;26823;42.662;23.352;2023-10-13T13:31:26;12.43;;;3.00;;
41077;SDS011;26823;42.662;23.352;2023-10-13T13:33:54;4.13;;;2.67;;
41077;SDS011;26823;42.662;23.352;2023-10-13T13:36:20;5.60;;;3.00;;
41077;SDS011;26823;42.662;23.352;2023-10-13T13:38:47;5.25;;;2.53;;
41077;SDS011;26823;42.662;23.352;2023-10-13T13:41:16;8.77;;;3.33;;
41077;SDS011;26823;42.662;23.352;2023-10-13T13:43:43;5.25;;;2.75;;
41077;SDS011;26823;42.662;23.352;2023-10-13T13:46:18;5.82;;;2.47;;
41077;SDS011;26823;42.662;23.352;2023-10-13T13:48:50;6.50;;;2.65;;
41077;SDS011;26823;42.662;23.352;2023-10-13T13:51:22;6.07;;;2.58;;
41077;SDS011;26823;42.662;23.352;2023-10-13T13:53:53;5.95;;;2.58;;
41077;SDS011;26823;42.662;23.352;2023-10-13T13:56:22;5.45;;;2.50;;
41077;SDS011;26823;42.662;23.352;2023-10-13T13:58:50;5.53;;;2.85;;
41077;SDS011;26823;42.662;23.352;2023-10-13T14:01:17;6.68;;;2.80;;
41077;SDS011;26823;42.662;23.352;2023-10-13T14:03:44;7.93;;;3.13;;
41077;SDS011;26823;42.662;23.352;2023-10-13T14:06:13;6.30;;;3.35;;
41077;SDS011;26823;42.662;23.352;2023-10-13T14:08:48;4.53;;;2.80;;
41077;SDS011;26823;42.662;23.352;2023-10-13T14:11:16;11.60;;;3.05;;
41077;SDS011;26823;42.662;23.352;2023-10-13T14:14:01;8.48;;;3.30;;
41077;SDS011;26823;42.662;23.352;2023-10-13T14:16:29;8.40;;;3.10;;
41077;SDS011;26823;42.662;23.352;2023-10-13T14:18:55;4.57;;;2.55;;
41077;SDS011;26823;42.662;23.352;2023-10-13T14:21:20;7.63;;;3.45;;
41077;SDS011;26823;42.662;23.352;2023-10-13T14:23:49;7.78;;;3.13;;
41077;SDS011;26823;42.662;23.352;2023-10-13T14:26:19;7.72;;;2.75;;
41077;SDS011;26823;42.662;23.352;2023-10-13T14:28:53;7.60;;;3.08;;
41077;SDS011;26823;42.662;23.352;2023-10-13T14:31:33;4.80;;;2.95;;
41077;SDS011;26823;42.662;23.352;2023-10-13T14:34:02;7.68;;;3.45;;
41077;SDS011;26823;42.662;23.352;2023-10-13T14:36:27;10.40;;;3.72;;
41077;SDS011;26823;42.662;23.352;2023-10-13T14:39:00;8.77;;;3.50;;
41077;SDS011;26823;42.662;23.352;2023-10-13T14:41:26;8.02;;;3.13;;
41077;SDS011;26823;42.662;23.352;2023-10-13T14:43:51;9.88;;;3.15;;
41077;SDS011;26823;42.662;23.352;2023-10-13T14:46:17;7.13;;;3.38;;
41077;SDS011;26823;42.662;23.352;2023-10-13T14:48:44;10.32;;;3.28;;
41077;SDS011;26823;42.662;23.352;2023-10-13T14:51:13;5.68;;;3.10;;
41077;SDS011;26823;42.662;23.352;2023-10-13T14:53:41;9.32;;;3.75;;
41077;SDS011;26823;42.662;23.352;2023-10-13T14:56:17;9.77;;;3.80;;
41077;SDS011;26823;42.662;23.352;2023-10-13T15:01:16;6.82;;;3.50;;
41077;SDS011;26823;42.662;23.352;2023-10-13T15:03:49;6.38;;;3.45;;
41077;SDS011;26823;42.662;23.352;2023-10-13T15:06:16;7.60;;;3.38;;
41077;SDS011;26823;42.662;23.352;2023-10-13T15:08:43;11.73;;;3.40;;
41077;SDS011;26823;42.662;23.352;2023-10-13T15:11:11;10.80;;;3.88;;
41077;SDS011;26823;42.662;23.352;2023-10-13T15:13:40;10.40;;;3.95;;
41077;SDS011;26823;42.662;23.352;2023-10-13T15:16:22;8.40;;;4.00;;
41077;SDS011;26823;42.662;23.352;2023-10-13T15:18:49;8.52;;;3.58;;
41077;SDS011;26823;42.662;23.352;2023-10-13T15:23:46;7.60;;;3.80;;